Time;durP1;ratioP1;P1;durP2;ratioP2;P2;SDS_P1;SDS_P2;PMS_P1;PMS_P2;Temp;Humidity;BMP_temperature;BMP_pressure;BME280_temperature;BME280_humidity;BME280_pressure;Samples;Min_cycle;Max_cycle;Signal;HPM_P1;HPM_P2
2024/04/26 00:00:29;;;;;;;4.20;3.80;;;;;;;1.99;100.00;98703.97;6631127;21;20232;-79
2024/04/26 00:02:58;;;;;;;5.17;4.17;;;;;;;1.95;100.00;98699.25;6585452;21;20243;-80
2024/04/26 00:05:26;;;;;;;5.37;4.30;;;;;;;1.87;100.00;98691.47;6585741;21;20232;-80
2024/04/26 00:07:58;;;;;;;5.03;4.53;;;;;;;1.79;100.00;98695.00;6584148;21;20224;-82
2024/04/26 00:10:26;;;;;;;6.17;4.87;;;;;;;1.75;100.00;98694.56;6628940;21;20220;-80
2024/04/26 00:12:55;;;;;;;5.53;5.00;;;;;;;1.71;100.00;98685.38;6585874;21;20227;-79
2024/04/26 00:15:24;;;;;;;8.10;5.53;;;;;;;1.64;100.00;98692.41;6585242;21;20223;-79
2024/04/26 00:17:52;;;;;;;5.60;4.50;;;;;;;1.64;100.00;98696.88;6584578;21;20306;-81
2024/04/26 00:20:19;;;;;;;4.87;4.40;;;;;;;1.61;100.00;98690.16;6584888;21;20322;-81
2024/04/26 00:22:47;;;;;;;4.67;4.00;;;;;;;1.62;100.00;98697.06;6628749;21;20270;-79
2024/04/26 00:25:15;;;;;;;4.40;4.00;;;;;;;1.64;100.00;98694.22;6628273;21;20435;-79
2024/04/26 00:27:45;;;;;;;4.50;4.10;;;;;;;1.65;100.00;98680.03;6542803;21;20220;-79
2024/04/26 00:30:14;;;;;;;5.57;4.10;;;;;;;1.69;100.00;98689.22;6628453;21;20224;-79
2024/04/26 00:32:41;;;;;;;4.40;4.00;;;;;;;1.71;100.00;98689.84;6584432;21;20290;-82
2024/04/26 00:35:10;;;;;;;4.67;3.73;;;;;;;1.74;100.00;98692.09;6585826;21;20224;-81
2024/04/26 00:37:38;;;;;;;3.53;3.23;;;;;;;1.75;100.00;98683.19;6585927;21;20739;-80
2024/04/26 00:40:09;;;;;;;4.30;3.90;;;;;;;1.76;100.00;98693.56;6544707;21;20231;-80
2024/04/26 00:42:40;;;;;;;4.40;4.00;;;;;;;1.75;100.00;98683.19;6629096;21;20759;-79
2024/04/26 00:45:08;;;;;;;3.80;3.40;;;;;;;1.73;100.00;98693.94;6585944;21;20243;-80
2024/04/26 00:47:36;;;;;;;5.87;4.10;;;;;;;1.72;100.00;98692.31;6584982;21;20279;-80
2024/04/26 00:50:05;;;;;;;4.30;3.90;;;;;;;1.60;100.00;98679.75;6629341;21;20326;-81
2024/04/26 00:52:34;;;;;;;4.43;3.83;;;;;;;1.55;100.00;98688.22;6585206;21;20703;-80
2024/04/26 00:55:03;;;;;;;3.90;3.50;;;;;;;1.52;100.00;98685.16;6541836;21;20255;-81
2024/04/26 00:57:31;;;;;;;4.17;3.77;;;;;;;1.47;100.00;98679.59;6584609;21;20298;-83
2024/04/26 00:59:59;;;;;;;4.47;3.70;;;;;;;1.42;100.00;98672.25;6584360;21;20275;-79
2024/04/26 01:02:28;;;;;;;3.90;3.53;;;;;;;1.38;100.00;98670.97;6628343;21;20382;-81
2024/04/26 01:05:02;;;;;;;4.03;3.63;;;;;;;1.35;100.00;98676.63;6629714;21;20220;-81
2024/04/26 01:07:30;;;;;;;4.00;3.63;;;;;;;1.31;100.00;98673.53;6587283;21;20325;-79
2024/04/26 01:09:58;;;;;;;5.20;3.80;;;;;;;1.25;100.00;98679.56;6584531;21;20255;-79
2024/04/26 01:12:26;;;;;;;4.20;3.80;;;;;;;1.23;100.00;98675.44;6627905;21;20309;-82
2024/04/26 01:14:58;;;;;;;4.57;4.17;;;;;;;1.20;100.00;98673.19;6628206;21;20232;-80
2024/04/26 01:17:26;;;;;;;3.80;3.50;;;;;;;1.17;100.00;98673.53;6628262;21;20232;-80
2024/04/26 01:19:55;;;;;;;4.17;3.77;;;;;;;1.11;100.00;98677.75;6628225;21;20232;-80
2024/04/26 01:22:33;;;;;;;4.10;3.70;;;;;;;1.07;100.00;98679.09;6540805;21;20720;-81
2024/04/26 01:25:02;;;;;;;3.90;3.50;;;;;;;1.03;100.00;98682.25;6628253;21;20223;-80
2024/04/26 01:27:32;;;;;;;4.90;3.57;;;;;;;0.99;100.00;98686.25;6584687;21;20244;-82
2024/04/26 01:30:00;;;;;;;3.93;3.63;;;;;;;0.95;100.00;98691.09;6628281;21;20217;-81
2024/04/26 01:32:28;;;;;;;3.97;3.57;;;;;;;0.93;100.00;98692.28;6627303;21;20279;-79
2024/04/26 01:34:56;;;;;;;3.77;3.43;;;;;;;0.91;100.00;98695.09;6629447;21;20263;-80
2024/04/26 01:37:24;;;;;;;3.70;3.40;;;;;;;0.89;100.00;98691.81;6584285;21;20274;-79
2024/04/26 01:39:51;;;;;;;4.20;3.77;;;;;;;0.84;100.00;98689.72;6628199;21;20220;-82
2024/04/26 01:42:19;;;;;;;4.70;3.97;;;;;;;0.81;100.00;98682.16;6628165;21;20275;-80
2024/04/26 01:44:47;;;;;;;4.37;3.97;;;;;;;0.79;100.00;98688.63;6627875;21;20254;-79
2024/04/26 01:47:15;;;;;;;4.30;3.90;;;;;;;0.74;100.00;98683.09;6627344;21;20232;-79
2024/04/26 01:49:44;;;;;;;4.07;3.67;;;;;;;0.68;100.00;98691.69;6627314;21;20235;-80
2024/04/26 01:52:11;;;;;;;4.00;3.60;;;;;;;0.63;100.00;98689.59;6627983;21;20223;-82
2024/04/26 01:54:43;;;;;;;3.67;3.37;;;;;;;0.57;100.00;98687.66;6585470;21;20236;-80
2024/04/26 01:57:11;;;;;;;4.10;3.60;;;;;;;0.56;100.00;98695.78;6627789;21;20232;-80
2024/04/26 01:59:41;;;;;;;3.80;3.50;;;;;;;0.51;100.00;98684.94;6542437;21;20228;-81
2024/04/26 02:02:09;;;;;;;3.60;3.30;;;;;;;0.47;100.00;98692.38;6627333;21;20231;-83
2024/04/26 02:04:38;;;;;;;4.37;3.50;;;;;;;0.42;100.00;98686.84;6541352;21;20746;-83
2024/04/26 02:07:06;;;;;;;4.50;3.50;;;;;;;0.36;100.00;98691.00;6583777;21;20236;-80
2024/04/26 02:09:33;;;;;;;3.80;3.50;;;;;;;0.31;100.00;98689.88;6584429;21;20368;-79
2024/04/26 02:12:01;;;;;;;3.93;3.47;;;;;;;0.30;100.00;98685.59;6629492;21;20223;-79
2024/04/26 02:14:30;;;;;;;3.80;3.40;;;;;;;0.24;100.00;98686.31;6627983;21;20236;-80
2024/04/26 02:16:58;;;;;;;4.37;3.83;;;;;;;0.24;100.00;98687.13;6584946;21;20228;-79
2024/04/26 02:19:25;;;;;;;3.93;3.57;;;;;;;0.20;100.00;98688.47;6627604;21;20223;-83
2024/04/26 02:21:53;;;;;;;3.90;3.50;;;;;;;0.18;100.00;98689.66;6583697;21;20280;-79
2024/04/26 02:24:21;;;;;;;3.83;3.53;;;;;;;0.18;100.00;98682.59;6584326;21;20740;-81
2024/04/26 02:26:50;;;;;;;3.67;3.37;;;;;;;0.10;100.00;98690.53;6628128;21;20291;-80
2024/04/26 02:29:18;;;;;;;4.07;3.50;;;;;;;0.10;100.00;98687.91;6628325;21;20223;-80
2024/04/26 02:31:48;;;;;;;3.73;3.37;;;;;;;0.06;100.00;98688.41;6584089;21;20240;-80
2024/04/26 02:34:16;;;;;;;4.33;3.63;;;;;;;0.01;100.00;98694.22;6583593;21;20236;-80
2024/04/26 02:36:43;;;;;;;4.37;3.97;;;;;;;-0.01;100.00;98690.97;6627342;21;20971;-81
2024/04/26 02:39:11;;;;;;;3.83;3.53;;;;;;;-0.06;100.00;98695.94;6583124;21;20232;-82
2024/04/26 02:41:39;;;;;;;3.90;3.60;;;;;;;-0.14;100.00;98688.88;6582520;21;20278;-81
2024/04/26 02:44:08;;;;;;;3.93;3.53;;;;;;;-0.16;100.00;98690.06;6627774;21;20228;-80
2024/04/26 02:46:37;;;;;;;4.40;3.93;;;;;;;-0.18;100.00;98694.66;6629346;21;20227;-79
2024/04/26 02:49:07;;;;;;;4.23;3.83;;;;;;;-0.22;100.00;98686.31;6584372;21;20228;-80
2024/04/26 02:51:35;;;;;;;4.20;3.67;;;;;;;-0.25;100.00;98685.84;6585830;21;20228;-81
2024/04/26 02:54:04;;;;;;;4.23;3.83;;;;;;;-0.25;100.00;98685.84;6586023;21;20434;-81
2024/04/26 02:56:32;;;;;;;4.00;3.60;;;;;;;-0.28;100.00;98691.47;6585694;21;20232;-81
2024/04/26 02:59:03;;;;;;;4.17;3.77;;;;;;;-0.30;100.00;98680.28;6585095;21;20240;-81
2024/04/26 03:01:33;;;;;;;4.13;3.73;;;;;;;-0.33;100.00;98678.81;6587534;21;20236;-81
2024/04/26 03:04:02;;;;;;;4.23;3.70;;;;;;;-0.36;100.00;98681.78;6586509;21;20239;-82
2024/04/26 03:06:30;;;;;;;4.30;3.87;;;;;;;-0.38;100.00;98682.97;6585805;21;20262;-80
2024/04/26 03:09:00;;;;;;;4.10;3.80;;;;;;;-0.40;100.00;98693.66;6587234;21;20236;-81
2024/04/26 03:11:28;;;;;;;4.37;3.97;;;;;;;-0.41;100.00;98691.19;6542921;21;20228;-83
2024/04/26 03:13:56;;;;;;;4.63;3.73;;;;;;;-0.45;100.00;98681.00;6585653;21;20235;-81
2024/04/26 03:16:24;;;;;;;4.47;3.70;;;;;;;-0.52;100.00;98684.50;6629081;21;20682;-82
2024/04/26 03:18:52;;;;;;;4.13;3.73;;;;;;;-0.54;100.00;98683.84;6628701;21;20741;-81
2024/04/26 03:21:20;;;;;;;4.20;3.80;;;;;;;-0.59;100.00;98686.19;6630980;21;20337;-80
2024/04/26 03:23:49;;;;;;;5.57;4.03;;;;;;;-0.61;100.00;98689.00;6628892;21;20321;-81
2024/04/26 03:26:19;;;;;;;4.30;3.90;;;;;;;-0.63;100.00;98695.41;6584957;21;20279;-81
2024/04/26 03:28:47;;;;;;;4.67;4.10;;;;;;;-0.64;100.00;98699.84;6628574;21;20232;-80
2024/04/26 03:31:21;;;;;;;4.60;4.10;;;;;;;-0.62;100.00;98691.78;6542556;21;20228;-83
2024/04/26 03:33:49;;;;;;;4.20;3.80;;;;;;;-0.63;100.00;98692.78;6585429;21;20669;-81
2024/04/26 03:36:19;;;;;;;5.17;4.20;;;;;;;-0.66;100.00;98699.22;6585191;21;20283;-79
2024/04/26 03:38:47;;;;;;;4.90;4.40;;;;;;;-0.64;100.00;98697.22;6585376;21;20232;-81
2024/04/26 03:41:18;;;;;;;6.33;5.00;;;;;;;-0.65;100.00;98700.00;6629109;21;20220;-80
2024/04/26 03:43:46;;;;;;;5.40;4.90;;;;;;;-0.65;100.00;98692.13;6585066;21;20325;-82
2024/04/26 03:46:17;;;;;;;5.77;4.97;;;;;;;-0.61;100.00;98698.69;6584873;21;20236;-80
2024/04/26 03:48:46;;;;;;;5.27;4.77;;;;;;;-0.62;100.00;98697.06;6628319;21;20260;-81
2024/04/26 03:51:17;;;;;;;5.03;4.53;;;;;;;-0.59;100.00;98704.59;6586199;21;20267;-81
2024/04/26 03:53:48;;;;;;;6.00;4.73;;;;;;;-0.61;100.00;98696.88;6628579;21;20280;-81
2024/04/26 03:56:17;;;;;;;5.07;4.57;;;;;;;-0.56;100.00;98707.69;6628852;21;20335;-82
2024/04/26 03:58:45;;;;;;;5.17;4.53;;;;;;;-0.53;100.00;98703.91;6542679;21;20228;-81
2024/04/26 04:01:16;;;;;;;5.70;4.07;;;;;;;-0.55;100.00;98701.44;6544103;21;20236;-80
2024/04/26 04:03:44;;;;;;;4.20;3.80;;;;;;;-0.52;100.00;98700.31;6542195;21;20251;-81
2024/04/26 04:06:12;;;;;;;4.33;3.73;;;;;;;-0.51;100.00;98702.75;6584785;21;20317;-80
2024/04/26 04:08:42;;;;;;;4.43;3.40;;;;;;;-0.48;100.00;98706.84;6541127;21;20563;-84
2024/04/26 04:11:09;;;;;;;3.70;3.23;;;;;;;-0.42;100.00;98707.97;6541544;21;20669;-80
2024/04/26 04:13:37;;;;;;;4.17;3.77;;;;;;;-0.41;100.00;98713.06;6629485;21;20236;-79
2024/04/26 04:16:05;;;;;;;5.03;4.10;;;;;;;-0.35;100.00;98709.75;6583615;21;20271;-81
2024/04/26 04:18:33;;;;;;;5.57;4.60;;;;;;;-0.28;100.00;98713.31;6584227;21;20232;-83
2024/04/26 04:21:01;;;;;;;7.97;5.70;;;;;;;-0.23;100.00;98710.97;6627070;21;20261;-82
2024/04/26 04:23:28;;;;;;;8.17;6.30;;;;;;;-0.19;100.00;98711.47;6583146;21;20326;-80
2024/04/26 04:25:56;;;;;;;8.40;6.23;;;;;;;-0.13;100.00;98716.84;6583560;21;20554;-81
2024/04/26 04:28:26;;;;;;;7.33;6.07;;;;;;;-0.03;100.00;98721.91;6627378;21;20224;-82
2024/04/26 04:30:54;;;;;;;7.50;6.10;;;;;;;0.09;100.00;98720.53;6628645;21;20240;-82
2024/04/26 04:33:22;;;;;;;7.07;6.33;;;;;;;0.27;100.00;98718.41;6583334;21;21089;-80
2024/04/26 04:35:51;;;;;;;8.00;6.97;;;;;;;0.47;100.00;98725.84;6584277;21;20315;-79
2024/04/26 04:38:20;;;;;;;9.10;7.57;;;;;;;0.64;100.00;98725.53;6627284;21;20228;-79
2024/04/26 04:40:49;;;;;;;8.30;7.50;;;;;;;0.83;100.00;98729.47;6627998;21;20219;-80
2024/04/26 04:43:16;;;;;;;7.07;6.37;;;;;;;1.07;100.00;98728.41;6672838;21;20224;-80
2024/04/26 04:45:44;;;;;;;8.63;6.90;;;;;;;1.29;100.00;98727.50;6627338;21;20268;-82
2024/04/26 04:48:13;;;;;;;7.27;6.20;;;;;;;1.49;100.00;98730.41;6629200;21;20262;-81
2024/04/26 04:50:41;;;;;;;8.27;6.00;;;;;;;1.68;100.00;98730.63;6627216;21;20232;-81
2024/04/26 04:53:08;;;;;;;6.30;5.47;;;;;;;1.86;100.00;98737.34;6583030;21;20311;-81
2024/04/26 04:55:36;;;;;;;6.67;5.40;;;;;;;2.03;100.00;98731.66;6626825;21;20257;-82
2024/04/26 04:58:04;;;;;;;6.23;5.30;;;;;;;2.24;100.00;98736.13;6626633;21;20232;-79
2024/04/26 05:00:35;;;;;;;5.73;5.13;;;;;;;2.45;100.00;98735.31;6627085;21;20279;-80
2024/04/26 05:03:03;;;;;;;6.43;5.23;;;;;;;2.63;100.00;98730.41;6626310;21;20255;-81
2024/04/26 05:05:31;;;;;;;6.07;5.23;;;;;;;2.75;100.00;98720.97;6625394;21;20224;-81
2024/04/26 05:07:59;;;;;;;5.80;5.03;;;;;;;2.93;100.00;98736.34;6626621;21;20279;-79
2024/04/26 05:10:26;;;;;;;6.23;5.27;;;;;;;3.02;100.00;98729.91;6626303;21;20283;-80
2024/04/26 05:12:55;;;;;;;5.63;4.80;;;;;;;3.17;100.00;98716.56;6582213;21;20231;-82
2024/04/26 05:15:23;;;;;;;6.23;5.27;;;;;;;3.37;100.00;98726.25;6583124;21;20607;-79
2024/04/26 05:17:51;;;;;;;6.73;5.33;;;;;;;3.57;100.00;98720.22;6628766;21;20224;-79
2024/04/26 05:20:19;;;;;;;6.53;5.57;;;;;;;3.72;100.00;98720.91;6583802;21;20271;-80
2024/04/26 05:22:46;;;;;;;6.50;5.90;;;;;;;3.85;100.00;98727.09;6582570;21;20220;-80
2024/04/26 05:25:14;;;;;;;9.17;6.20;;;;;;;3.93;100.00;98718.94;6582562;21;20276;-79
2024/04/26 05:27:42;;;;;;;10.73;7.40;;;;;;;4.11;100.00;98733.47;6629046;21;20287;-83
2024/04/26 05:30:10;;;;;;;8.43;6.80;;;;;;;4.28;100.00;98735.56;6625960;21;20228;-79
2024/04/26 05:32:38;;;;;;;9.93;7.27;;;;;;;4.35;100.00;98728.44;6627133;21;20240;-80
2024/04/26 05:35:07;;;;;;;10.13;7.30;;;;;;;4.53;100.00;98730.50;6625637;21;20272;-79
2024/04/26 05:37:36;;;;;;;10.50;7.03;;;;;;;4.78;100.00;98741.34;6582700;21;20232;-80
2024/04/26 05:40:11;;;;;;;9.97;7.60;;;;;;;4.93;100.00;98739.28;6581296;21;20228;-80
2024/04/26 05:42:38;;;;;;;8.50;6.80;;;;;;;5.07;100.00;98726.81;6578881;21;20229;-83
2024/04/26 05:45:06;;;;;;;9.83;6.87;;;;;;;5.26;100.00;98726.81;6535074;21;20549;-86
2024/04/26 05:47:34;;;;;;;8.73;7.10;;;;;;;5.38;100.00;98726.97;6580979;21;20294;-79
2024/04/26 05:50:01;;;;;;;7.70;6.63;;;;;;;5.51;100.00;98734.09;6624409;21;20220;-80
2024/04/26 05:52:29;;;;;;;7.97;6.47;;;;;;;5.59;100.00;98731.22;6624824;21;20266;-78
2024/04/26 05:54:56;;;;;;;7.73;6.70;;;;;;;5.71;100.00;98730.34;6622749;21;20271;-82
2024/04/26 05:57:23;;;;;;;7.97;6.17;;;;;;;5.88;100.00;98724.59;6576819;21;20244;-82
2024/04/26 05:59:51;;;;;;;7.60;5.60;;;;;;;5.95;100.00;98723.53;6581882;21;20236;-83
2024/04/26 06:02:18;;;;;;;6.27;5.60;;;;;;;6.15;100.00;98734.09;6627130;21;20220;-80
2024/04/26 06:04:48;;;;;;;7.03;6.00;;;;;;;6.33;100.00;98738.69;6624028;21;20224;-81
2024/04/26 06:07:15;;;;;;;13.10;9.57;;;;;;;6.40;100.00;98736.78;6581146;21;20220;-83
2024/04/26 06:09:43;;;;;;;13.53;8.03;;;;;;;6.58;100.00;98729.69;6620866;21;20345;-79
2024/04/26 06:12:11;;;;;;;6.60;6.00;;;;;;;6.71;100.00;98741.31;6576669;21;20736;-79
2024/04/26 06:14:39;;;;;;;7.27;6.10;;;;;;;6.68;100.00;98741.72;6581880;21;20259;-80
2024/04/26 06:17:08;;;;;;;6.70;5.70;;;;;;;6.85;100.00;98742.81;6539296;21;20228;-79
2024/04/26 06:19:35;;;;;;;6.83;6.00;;;;;;;7.03;100.00;98745.53;6625723;21;20341;-80
2024/04/26 06:22:04;;;;;;;7.33;6.37;;;;;;;7.12;100.00;98743.41;6626223;21;20224;-81
2024/04/26 06:24:32;;;;;;;6.40;5.80;;;;;;;7.30;100.00;98738.13;6629106;21;20224;-80
2024/04/26 06:27:00;;;;;;;6.80;5.80;;;;;;;7.48;100.00;98748.78;6628457;21;20248;-82
2024/04/26 06:29:29;;;;;;;8.80;6.27;;;;;;;7.56;100.00;98739.72;6627814;21;20223;-79
2024/04/26 06:32:03;;;;;;;7.70;6.00;;;;;;;7.64;100.00;98742.91;6541810;21;20342;-79
2024/04/26 06:34:32;;;;;;;7.63;6.27;;;;;;;7.62;100.00;98744.94;6627894;21;20239;-80
2024/04/26 06:37:07;;;;;;;7.27;5.97;;;;;;;7.71;100.00;98743.63;6584544;21;20228;-81
2024/04/26 06:39:35;;;;;;;6.73;6.00;;;;;;;7.78;100.00;98747.03;6586421;21;20270;-80
2024/04/26 06:42:02;;;;;;;6.60;5.73;;;;;;;7.89;100.00;98756.13;6630111;21;20228;-79
2024/04/26 06:44:30;;;;;;;8.83;6.20;;;;;;;8.00;100.00;98759.91;6584030;21;20231;-81
2024/04/26 06:46:58;;;;;;;6.10;5.50;;;;;;;8.16;100.00;98754.78;6628364;21;20228;-82
2024/04/26 06:49:26;;;;;;;5.80;5.30;;;;;;;8.17;100.00;98756.38;6583976;21;20329;-80
2024/04/26 06:51:54;;;;;;;6.10;5.40;;;;;;;8.12;100.00;98756.25;6584468;21;20236;-82
2024/04/26 06:54:22;;;;;;;5.73;5.23;;;;;;;8.30;100.00;98761.63;6584341;21;20287;-84
2024/04/26 06:56:50;;;;;;;6.07;5.43;;;;;;;8.29;100.00;98762.66;6583796;21;20266;-80
2024/04/26 06:59:21;;;;;;;5.50;5.00;;;;;;;8.32;100.00;98762.19;6583607;21;20255;-80
2024/04/26 07:01:51;;;;;;;5.23;4.77;;;;;;;8.57;100.00;98761.22;6629191;21;20271;-80
2024/04/26 07:04:19;;;;;;;6.97;5.17;;;;;;;8.59;100.00;98756.47;6541633;21;20232;-81
2024/04/26 07:06:48;;;;;;;5.60;5.10;;;;;;;8.54;100.00;98757.16;6627730;21;20236;-80
2024/04/26 07:09:16;;;;;;;6.03;5.40;;;;;;;8.69;100.00;98754.88;6626885;21;20685;-81
2024/04/26 07:11:48;;;;;;;5.43;4.93;;;;;;;8.88;100.00;98754.78;6627994;21;20224;-79
2024/04/26 07:14:16;;;;;;;5.67;5.13;;;;;;;9.15;100.00;98748.78;6541282;21;20220;-80
2024/04/26 07:16:44;;;;;;;5.27;4.80;;;;;;;9.20;100.00;98754.25;6584617;21;20271;-80
2024/04/26 07:19:16;;;;;;;5.57;5.07;;;;;;;9.47;100.00;98757.28;6621712;21;20241;-81
2024/04/26 07:21:44;;;;;;;5.00;4.60;;;;;;;9.58;100.00;98752.97;6581999;21;20306;-81
2024/04/26 07:24:12;;;;;;;6.17;5.60;;;;;;;9.43;100.00;98766.81;6538897;21;20310;-81
2024/04/26 07:26:39;;;;;;;5.90;5.40;;;;;;;9.45;100.00;98758.56;6538716;21;20291;-81
2024/04/26 07:29:07;;;;;;;6.83;6.23;;;;;;;9.50;100.00;98756.81;6538292;21;20255;-81
2024/04/26 07:31:53;;;;;;;6.33;5.73;;;;;;;9.48;100.00;98755.41;6551697;21;20704;-82
2024/04/26 07:34:20;;;;;;;6.70;6.10;;;;;;;9.68;100.00;98750.53;6581289;21;20224;-81
2024/04/26 07:36:48;;;;;;;6.57;5.97;;;;;;;9.61;100.00;98755.97;6581401;21;20231;-81
2024/04/26 07:39:15;;;;;;;7.00;6.30;;;;;;;9.88;100.00;98756.31;6581667;21;20232;-82
2024/04/26 07:41:45;;;;;;;6.40;5.83;;;;;;;10.10;100.00;98751.13;6538658;21;20228;-81
2024/04/26 07:44:13;;;;;;;6.37;5.77;;;;;;;10.27;100.00;98759.22;6581596;21;20271;-80
2024/04/26 07:46:41;;;;;;;5.73;5.23;;;;;;;10.43;100.00;98758.47;6581806;21;20236;-81
2024/04/26 07:49:08;;;;;;;5.40;4.90;;;;;;;10.62;100.00;98759.09;6579365;21;20274;-83
2024/04/26 07:51:36;;;;;;;6.33;5.57;;;;;;;10.81;100.00;98757.84;6538505;21;20224;-81
2024/04/26 07:54:04;;;;;;;5.93;5.43;;;;;;;10.87;100.00;98754.97;6625690;21;20263;-82
2024/04/26 07:56:33;;;;;;;5.53;5.03;;;;;;;10.96;100.00;98750.06;6581391;21;20259;-81
2024/04/26 07:59:01;;;;;;;5.67;5.17;;;;;;;11.07;100.00;98756.38;6624945;21;20318;-80
2024/04/26 08:01:29;;;;;;;5.47;4.97;;;;;;;11.20;100.00;98746.13;6580243;21;20235;-82
2024/04/26 08:03:56;;;;;;;4.10;3.80;;;;;;;11.36;100.00;98744.50;6581177;21;20228;-82
2024/04/26 08:06:25;;;;;;;4.50;3.20;;;;;;;11.54;100.00;98751.47;6624897;21;20224;-81
2024/04/26 08:08:53;;;;;;;2.60;2.40;;;;;;;11.77;100.00;98746.72;6581060;21;20324;-82
2024/04/26 08:11:21;;;;;;;2.60;2.40;;;;;;;12.06;100.00;98742.00;6624698;21;20235;-82
2024/04/26 08:13:49;;;;;;;2.60;2.33;;;;;;;12.32;100.00;98749.25;6538031;21;20249;-81
2024/04/26 08:16:18;;;;;;;3.07;2.27;;;;;;;12.57;100.00;98748.72;6625467;21;20268;-82
2024/04/26 08:18:46;;;;;;;2.00;1.80;;;;;;;12.86;100.00;98746.59;6624114;21;20287;-81
2024/04/26 08:21:14;;;;;;;1.60;1.50;;;;;;;13.04;100.00;98743.50;6624362;21;20285;-82
2024/04/26 08:23:43;;;;;;;2.53;1.70;;;;;;;13.27;100.00;98747.75;6538452;21;20256;-81
2024/04/26 08:26:12;;;;;;;1.50;1.40;;;;;;;13.38;100.00;98749.44;6581020;21;20241;-81
2024/04/26 08:28:40;;;;;;;2.33;1.50;;;;;;;13.52;100.00;98744.44;6625940;21;20221;-81
2024/04/26 08:31:08;;;;;;;1.73;1.63;;;;;;;13.64;100.00;98748.53;6623909;21;20224;-81
2024/04/26 08:33:35;;;;;;;1.33;1.23;;;;;;;13.75;100.00;98733.25;6579643;21;20233;-81
2024/04/26 08:36:05;;;;;;;1.67;1.57;;;;;;;13.84;100.00;98734.38;6537863;21;20683;-81
2024/04/26 08:38:35;;;;;;;1.20;1.10;;;;;;;13.98;100.00;98738.22;6580823;21;20238;-81
2024/04/26 08:41:03;;;;;;;1.40;1.30;;;;;;;14.14;100.00;98732.88;6581747;21;20285;-81
2024/04/26 08:43:31;;;;;;;1.50;1.33;;;;;;;14.29;100.00;98732.91;6580123;21;20227;-81
2024/04/26 08:45:58;;;;;;;1.30;1.10;;;;;;;14.26;100.00;98734.28;6624067;21;20269;-81
2024/04/26 08:48:26;;;;;;;1.20;1.10;;;;;;;14.37;100.00;98730.53;6579891;21;20256;-81
2024/04/26 08:50:55;;;;;;;1.00;0.93;;;;;;;14.45;100.00;98730.03;6538276;21;20238;-81
2024/04/26 08:53:26;;;;;;;1.43;1.00;;;;;;;14.56;100.00;98727.38;6581687;21;20231;-81
2024/04/26 08:55:54;;;;;;;1.50;1.20;;;;;;;14.57;100.00;98729.78;6581371;21;20323;-82
2024/04/26 08:58:21;;;;;;;1.10;1.00;;;;;;;14.59;100.00;98732.22;6624960;21;20227;-82
2024/04/26 09:00:50;;;;;;;1.17;1.10;;;;;;;14.73;100.00;98731.44;6537914;21;20257;-81
2024/04/26 09:03:22;;;;;;;0.93;0.93;;;;;;;14.82;100.00;98729.00;6581013;21;20230;-82
2024/04/26 09:05:51;;;;;;;1.63;1.03;;;;;;;14.93;100.00;98733.34;6624143;21;20219;-82
2024/04/26 09:08:19;;;;;;;1.10;1.00;;;;;;;15.00;100.00;98728.47;6580401;21;20223;-81
2024/04/26 09:10:47;;;;;;;1.00;0.87;;;;;;;15.09;100.00;98726.03;6580651;21;20829;-80
2024/04/26 09:13:16;;;;;;;1.47;1.00;;;;;;;15.11;100.00;98726.59;6623861;21;20224;-82
2024/04/26 09:15:43;;;;;;;1.13;0.90;;;;;;;14.98;100.00;98734.13;6537996;21;20226;-81
2024/04/26 09:18:11;;;;;;;1.10;1.00;;;;;;;15.04;100.00;98728.75;6580450;21;20284;-81
2024/04/26 09:20:41;;;;;;;1.73;1.00;;;;;;;15.10;100.00;98719.56;6580666;21;20250;-82
2024/04/26 09:23:11;;;;;;;0.80;0.80;;;;;;;15.23;100.00;98719.84;6581460;21;20228;-82
2024/04/26 09:25:42;;;;;;;1.00;0.90;;;;;;;15.36;100.00;98719.28;6580251;21;20216;-81
2024/04/26 09:28:10;;;;;;;1.80;0.90;;;;;;;15.47;100.00;98720.06;6581346;21;20744;-81
2024/04/26 09:30:48;;;;;;;0.70;0.70;;;;;;;15.47;100.00;98719.25;6579844;21;20231;-80
2024/04/26 09:33:22;;;;;;;0.70;0.70;;;;;;;15.61;100.00;98710.34;6623690;21;20312;-80
2024/04/26 09:35:52;;;;;;;1.77;0.77;;;;;;;15.75;100.00;98714.09;6624043;21;20317;-81
2024/04/26 09:38:22;;;;;;;1.00;0.90;;;;;;;15.79;97.84;98722.44;6581031;21;20239;-82
2024/04/26 09:40:51;;;;;;;0.80;0.80;;;;;;;15.73;97.00;98716.25;6623766;21;20259;-80
2024/04/26 09:43:19;;;;;;;1.23;0.87;;;;;;;15.75;94.89;98711.38;6624006;21;20228;-80
2024/04/26 09:45:49;;;;;;;1.00;0.73;;;;;;;15.94;97.02;98708.09;6580415;21;20221;-80
2024/04/26 09:48:17;;;;;;;1.23;0.80;;;;;;;15.98;93.27;98709.94;6537813;21;20236;-80
2024/04/26 09:50:47;;;;;;;1.47;1.37;;;;;;;16.03;93.54;98706.41;6623418;21;20267;-81
2024/04/26 09:53:16;;;;;;;0.90;0.80;;;;;;;16.12;93.46;98708.25;6624085;21;20228;-80
2024/04/26 09:55:44;;;;;;;0.73;0.70;;;;;;;16.08;90.13;98701.00;6580070;21;20712;-80
2024/04/26 09:58:11;;;;;;;1.33;0.70;;;;;;;16.16;90.90;98709.31;6623761;21;20310;-80
2024/04/26 10:00:40;;;;;;;0.60;0.60;;;;;;;16.18;89.26;98706.34;6623339;21;20291;-81
2024/04/26 10:03:08;;;;;;;0.73;0.73;;;;;;;16.19;89.50;98695.25;6581465;21;20274;-81
2024/04/26 10:05:39;;;;;;;0.70;0.70;;;;;;;16.30;87.80;98698.72;6571234;21;20263;-81
2024/04/26 10:08:08;;;;;;;0.70;0.70;;;;;;;16.35;86.02;98700.56;6539266;21;20236;-81
2024/04/26 10:10:38;;;;;;;0.97;0.80;;;;;;;16.42;88.95;98699.19;6580155;21;20224;-81
2024/04/26 10:13:16;;;;;;;0.93;0.93;;;;;;;16.51;87.27;98710.22;6624761;21;20324;-81
2024/04/26 10:15:54;;;;;;;0.70;0.70;;;;;;;16.45;84.61;98708.63;6583240;21;20251;-80
2024/04/26 10:18:34;;;;;;;1.10;1.00;;;;;;;16.53;82.98;98702.63;6580939;21;20270;-80
2024/04/26 10:21:02;;;;;;;0.60;0.60;;;;;;;16.57;82.92;98715.31;6581169;21;20296;-80
2024/04/26 10:23:30;;;;;;;0.70;0.63;;;;;;;16.66;83.33;98702.03;6624113;21;20283;-80
2024/04/26 10:26:08;;;;;;;0.60;0.60;;;;;;;16.82;83.25;98700.84;6624039;21;20235;-80
2024/04/26 10:28:38;;;;;;;1.10;0.83;;;;;;;16.91;82.39;98687.50;6580686;21;20332;-81
2024/04/26 10:31:06;;;;;;;0.70;0.60;;;;;;;17.01;83.50;98693.66;6580251;21;20262;-82
2024/04/26 10:33:34;;;;;;;1.30;0.90;;;;;;;16.97;79.45;98681.78;6580994;21;20240;-81
2024/04/26 10:36:07;;;;;;;0.80;0.80;;;;;;;16.86;78.26;98685.66;6580793;21;20239;-80
2024/04/26 10:38:42;;;;;;;1.13;0.70;;;;;;;16.89;78.32;98689.69;6580909;21;20262;-82
2024/04/26 10:41:10;;;;;;;1.03;0.77;;;;;;;16.96;78.21;98687.47;6624661;21;20695;-81
2024/04/26 10:43:38;;;;;;;0.87;0.87;;;;;;;17.01;77.39;98674.69;6580630;21;20329;-82
2024/04/26 10:46:06;;;;;;;0.60;0.60;;;;;;;16.86;74.77;98688.34;6580179;21;20243;-81
2024/04/26 10:48:35;;;;;;;1.50;0.77;;;;;;;16.84;77.04;98682.44;6580373;21;20258;-81
2024/04/26 10:51:11;;;;;;;1.53;0.77;;;;;;;16.92;75.89;98670.19;6580728;21;20254;-81
2024/04/26 10:53:41;;;;;;;0.73;0.70;;;;;;;16.98;76.53;98671.75;6624956;21;20279;-81
2024/04/26 10:56:15;;;;;;;0.77;0.77;;;;;;;17.08;75.15;98672.47;6538267;21;20240;-82
2024/04/26 10:58:45;;;;;;;1.73;0.80;;;;;;;17.14;73.96;98682.16;6581864;21;20567;-83
2024/04/26 11:01:22;;;;;;;0.80;0.80;;;;;;;17.25;73.09;98679.34;6580409;21;20232;-81
2024/04/26 11:03:53;;;;;;;0.70;0.67;;;;;;;17.08;73.34;98680.56;6582579;21;20224;-82
2024/04/26 11:06:33;;;;;;;0.70;0.70;;;;;;;17.25;73.40;98682.06;6581058;21;20270;-82
2024/04/26 11:09:08;;;;;;;1.53;0.90;;;;;;;17.24;71.80;98675.03;6624755;21;20235;-81
2024/04/26 11:11:37;;;;;;;1.20;0.90;;;;;;;17.25;70.61;98674.75;6582268;21;20550;-82
2024/04/26 11:14:05;;;;;;;0.73;0.73;;;;;;;17.31;69.87;98679.00;6539401;21;20224;-82
2024/04/26 11:16:33;;;;;;;0.60;0.60;;;;;;;17.18;69.48;98676.97;6582342;21;20228;-82
2024/04/26 11:19:01;;;;;;;0.63;0.63;;;;;;;17.31;70.89;98670.09;6581937;21;20229;-82
2024/04/26 11:21:29;;;;;;;1.43;0.77;;;;;;;17.49;73.00;98680.19;6582295;21;20259;-82
2024/04/26 11:23:56;;;;;;;1.03;0.70;;;;;;;17.40;69.61;98665.66;6539052;21;20232;-82
2024/04/26 11:26:24;;;;;;;1.07;0.73;;;;;;;17.34;68.93;98673.03;6582456;21;20290;-82
2024/04/26 11:28:51;;;;;;;1.03;0.90;;;;;;;17.39;67.97;98669.47;6625967;21;20247;-82
2024/04/26 11:31:20;;;;;;;0.77;0.70;;;;;;;17.43;69.98;98665.09;6582822;21;20232;-83
2024/04/26 11:33:47;;;;;;;0.80;0.70;;;;;;;17.54;68.10;98670.09;6494745;21;1900607;-82
2024/04/26 11:36:18;;;;;;;0.80;0.60;;;;;;;17.70;67.37;98662.63;6625180;21;20220;-82
2024/04/26 11:38:46;;;;;;;1.80;0.83;;;;;;;17.78;67.17;98670.13;6582945;21;20227;-82